Time;durP1;ratioP1;P1;durP2;ratioP2;P2;SDS_P1;SDS_P2;PMS_P1;PMS_P2;Temp;Humidity;BMP_temperature;BMP_pressure;BME280_temperature;BME280_humidity;BME280_pressure;Samples;Min_cycle;Max_cycle;Signal;HPM_P1;HPM_P2
2024/02/17 00:01:57;;;;;;;32.07;13.73;;;;;;;;;;5104826;28;20028;-59
2024/02/17 00:04:23;;;;;;;30.90;13.63;;;;;;;;;;5113943;28;20278;-58
2024/02/17 00:06:48;;;;;;;29.70;13.80;;;;;;;;;;5126249;28;20313;-57
2024/02/17 00:09:13;;;;;;;33.87;13.77;;;;;;;;;;5117675;28;20265;-56
2024/02/17 00:11:39;;;;;;;33.17;13.13;;;;;;;;;;5114639;28;20264;-56
2024/02/17 00:14:04;;;;;;;36.37;12.87;;;;;;;;;;5114263;28;20260;-57
2024/02/17 00:16:31;;;;;;;35.67;13.05;;;;;;;;;;5121801;28;20452;-59
2024/02/17 00:18:56;;;;;;;24.30;11.95;;;;;;;;;;5106143;28;20032;-58
2024/02/17 00:21:22;;;;;;;30.10;12.47;;;;;;;;;;5104602;28;20050;-58
2024/02/17 00:23:47;;;;;;;33.50;13.00;;;;;;;;;;5095564;28;20029;-60
2024/02/17 00:26:15;;;;;;;32.53;13.10;;;;;;;;;;5114008;28;20028;-55
2024/02/17 00:28:41;;;;;;;29.60;12.80;;;;;;;;;;5115197;28;20057;-59
2024/02/17 00:31:07;;;;;;;33.10;13.60;;;;;;;;;;5114811;28;20260;-59
2024/02/17 00:33:32;;;;;;;30.93;12.00;;;;;;;;;;5114197;28;20278;-58
2024/02/17 00:35:58;;;;;;;29.43;13.03;;;;;;;;;;5122548;28;20356;-59
2024/02/17 00:38:23;;;;;;;32.80;13.23;;;;;;;;;;5117250;28;20269;-58
2024/02/17 00:40:49;;;;;;;32.00;12.87;;;;;;;;;;5113712;28;20320;-59
2024/02/17 00:43:15;;;;;;;35.27;13.20;;;;;;;;;;5114685;28;20253;-58
2024/02/17 00:45:43;;;;;;;37.90;14.07;;;;;;;;;;5123225;28;20255;-58
2024/02/17 00:48:09;;;;;;;35.10;14.07;;;;;;;;;;5125308;28;20276;-58
2024/02/17 00:50:34;;;;;;;33.53;13.77;;;;;;;;;;5116569;28;20340;-58
2024/02/17 00:53:00;;;;;;;48.28;15.35;;;;;;;;;;5118139;28;20032;-59
2024/02/17 00:55:25;;;;;;;38.83;15.32;;;;;;;;;;5119053;28;20047;-59
2024/02/17 00:57:51;;;;;;;31.77;14.00;;;;;;;;;;5120359;28;20042;-60
2024/02/17 01:00:16;;;;;;;38.60;15.73;;;;;;;;;;5117504;28;20028;-59
2024/02/17 01:02:42;;;;;;;41.60;15.52;;;;;;;;;;5104065;28;20035;-60
2024/02/17 01:05:07;;;;;;;40.20;15.98;;;;;;;;;;5117622;28;20058;-58
2024/02/17 01:07:33;;;;;;;38.05;15.25;;;;;;;;;;5132724;28;20028;-59
2024/02/17 01:09:58;;;;;;;44.30;16.17;;;;;;;;;;5127962;28;20043;-58
2024/02/17 01:12:24;;;;;;;34.92;15.10;;;;;;;;;;5117339;28;20391;-58
2024/02/17 01:14:50;;;;;;;38.15;15.10;;;;;;;;;;5117482;28;20031;-57
2024/02/17 01:17:16;;;;;;;37.00;15.00;;;;;;;;;;5125356;28;20032;-58
2024/02/17 01:19:42;;;;;;;36.63;17.17;;;;;;;;;;5117187;28;20078;-59
2024/02/17 01:22:07;;;;;;;36.83;15.88;;;;;;;;;;5117249;28;20038;-59
2024/02/17 01:24:33;;;;;;;45.93;17.33;;;;;;;;;;5117530;28;20032;-60
2024/02/17 01:26:58;;;;;;;39.67;16.40;;;;;;;;;;5126975;28;20038;-59
2024/02/17 01:29:23;;;;;;;38.13;14.17;;;;;;;;;;5125858;28;20024;-58
2024/02/17 01:31:51;;;;;;;43.50;15.45;;;;;;;;;;5105964;28;20094;-57
2024/02/17 01:34:17;;;;;;;39.73;16.77;;;;;;;;;;5106571;28;20040;-59
2024/02/17 01:36:45;;;;;;;43.50;15.63;;;;;;;;;;5122108;28;20334;-58
2024/02/17 01:39:10;;;;;;;32.20;13.57;;;;;;;;;;5117928;28;20047;-57
2024/02/17 01:41:36;;;;;;;37.40;15.40;;;;;;;;;;5116919;28;20256;-59
2024/02/17 01:44:03;;;;;;;38.73;15.30;;;;;;;;;;5116274;28;20054;-58
2024/02/17 01:46:29;;;;;;;37.57;14.37;;;;;;;;;;5119052;28;20028;-59
2024/02/17 01:48:54;;;;;;;35.10;14.30;;;;;;;;;;5119922;28;20336;-58
2024/02/17 01:51:20;;;;;;;38.37;13.40;;;;;;;;;;5115857;28;20272;-58
2024/02/17 01:53:46;;;;;;;33.70;16.17;;;;;;;;;;5116691;28;20316;-57
2024/02/17 01:56:11;;;;;;;39.27;14.67;;;;;;;;;;5116701;28;20056;-59
2024/02/17 01:58:37;;;;;;;29.73;14.40;;;;;;;;;;5130554;28;20415;-59
2024/02/17 02:01:02;;;;;;;45.37;14.23;;;;;;;;;;5131733;28;20099;-59
2024/02/17 02:03:28;;;;;;;33.72;13.82;;;;;;;;;;5116817;28;20071;-60
2024/02/17 02:05:55;;;;;;;36.10;14.35;;;;;;;;;;5116421;28;20056;-60
2024/02/17 02:08:21;;;;;;;40.27;13.30;;;;;;;;;;5125645;28;20040;-59
2024/02/17 02:10:46;;;;;;;39.13;15.25;;;;;;;;;;5125940;28;20383;-59
2024/02/17 02:13:12;;;;;;;33.90;13.37;;;;;;;;;;5099595;28;20058;-59
2024/02/17 02:15:41;;;;;;;34.53;13.07;;;;;;;;;;5098773;28;20348;-58
2024/02/17 02:18:07;;;;;;;37.03;13.90;;;;;;;;;;5120788;28;20261;-59
2024/02/17 02:20:33;;;;;;;39.80;14.03;;;;;;;;;;5116171;28;20269;-60
2024/02/17 02:22:58;;;;;;;33.07;14.03;;;;;;;;;;5116307;28;20260;-59
2024/02/17 02:25:25;;;;;;;48.10;13.10;;;;;;;;;;5115761;28;20039;-59
2024/02/17 02:27:50;;;;;;;;;;;;;;;;;;5111078;28;20166;-58
2024/02/17 02:30:15;;;;;;;30.17;12.30;;;;;;;;;;5114574;28;19926;-59
2024/02/17 02:32:41;;;;;;;39.80;13.87;;;;;;;;;;5115671;28;20032;-60
2024/02/17 02:35:07;;;;;;;31.48;13.68;;;;;;;;;;5115948;28;20043;-60
2024/02/17 02:37:32;;;;;;;35.60;13.27;;;;;;;;;;5115130;28;20047;-59
2024/02/17 02:39:57;;;;;;;42.63;13.53;;;;;;;;;;5115844;28;20110;-59
2024/02/17 02:42:23;;;;;;;39.67;14.17;;;;;;;;;;5115536;28;20256;-60
2024/02/17 02:44:48;;;;;;;46.83;14.27;;;;;;;;;;5115765;28;20814;-60
2024/02/17 02:47:16;;;;;;;40.97;14.87;;;;;;;;;;5113933;28;20357;-58
2024/02/17 02:49:42;;;;;;;41.07;16.20;;;;;;;;;;5114648;28;20032;-60
2024/02/17 02:52:08;;;;;;;50.63;17.40;;;;;;;;;;5116680;28;20279;-60
2024/02/17 02:54:33;;;;;;;49.92;19.25;;;;;;;;;;5115660;28;20091;-61
2024/02/17 02:56:58;;;;;;;41.40;15.97;;;;;;;;;;5116160;28;20057;-58
2024/02/17 02:59:24;;;;;;;45.80;16.75;;;;;;;;;;5115806;28;20111;-58
2024/02/17 03:01:49;;;;;;;48.88;17.17;;;;;;;;;;5111060;28;20074;-59
2024/02/17 03:04:15;;;;;;;31.58;13.13;;;;;;;;;;5109058;28;20062;-58
2024/02/17 03:06:40;;;;;;;49.20;16.00;;;;;;;;;;5096974;28;20092;-59
2024/02/17 03:09:06;;;;;;;48.93;14.63;;;;;;;;;;5118409;28;20072;-58
2024/02/17 03:11:32;;;;;;;42.70;15.00;;;;;;;;;;5123071;28;20100;-59
2024/02/17 03:13:58;;;;;;;;;;;;;;;;;;5115668;28;20032;-60
2024/02/17 03:16:26;;;;;;;45.63;13.23;;;;;;;;;;5115184;28;19947;-57
2024/02/17 03:18:52;;;;;;;38.60;12.77;;;;;;;;;;5118806;28;20032;-59
2024/02/17 03:21:18;;;;;;;27.70;12.57;;;;;;;;;;5114750;28;20521;-56
2024/02/17 03:23:43;;;;;;;37.43;12.80;;;;;;;;;;5114926;28;20036;-60
2024/02/17 03:26:08;;;;;;;33.57;12.13;;;;;;;;;;5106472;28;20033;-58
2024/02/17 03:28:34;;;;;;;34.63;12.50;;;;;;;;;;5119388;28;20076;-58
2024/02/17 03:31:00;;;;;;;39.50;14.50;;;;;;;;;;5111243;28;20035;-60
2024/02/17 03:33:27;;;;;;;;;;;;;;;;;;5114111;28;20078;-60
2024/02/17 03:35:52;;;;;;;28.73;12.47;;;;;;;;;;5112452;28;19912;-60
2024/02/17 03:38:18;;;;;;;36.50;12.27;;;;;;;;;;5114812;28;20286;-60
2024/02/17 03:40:43;;;;;;;21.30;11.60;;;;;;;;;;5116361;28;20320;-60
2024/02/17 03:43:09;;;;;;;32.53;11.97;;;;;;;;;;5106552;28;20260;-57
2024/02/17 03:45:34;;;;;;;29.60;11.50;;;;;;;;;;5114974;28;20042;-60
2024/02/17 03:48:00;;;;;;;39.88;11.25;;;;;;;;;;5117252;28;20027;-58
2024/02/17 03:50:25;;;;;;;30.55;12.35;;;;;;;;;;5114844;28;20024;-55
2024/02/17 03:52:51;;;;;;;38.53;12.87;;;;;;;;;;5114447;28;20039;-56
2024/02/17 03:55:16;;;;;;;28.37;12.97;;;;;;;;;;5114890;28;20267;-59
2024/02/17 03:57:42;;;;;;;40.50;14.03;;;;;;;;;;5115926;28;20339;-58
2024/02/17 04:00:10;;;;;;;36.50;13.50;;;;;;;;;;5114902;28;20046;-61
2024/02/17 04:02:39;;;;;;;46.53;15.33;;;;;;;;;;5119839;28;20074;-60
2024/02/17 04:05:05;;;;;;;38.33;13.88;;;;;;;;;;5114978;28;20268;-59
2024/02/17 04:07:30;;;;;;;31.70;11.30;;;;;;;;;;5112858;28;20039;-58
2024/02/17 04:09:56;;;;;;;26.43;13.60;;;;;;;;;;5123983;28;20050;-56
2024/02/17 04:12:21;;;;;;;44.60;12.93;;;;;;;;;;5117944;28;20256;-60
2024/02/17 04:14:47;;;;;;;34.30;11.75;;;;;;;;;;5114549;28;20074;-60
2024/02/17 04:17:12;;;;;;;32.97;11.80;;;;;;;;;;5114343;28;20043;-58
2024/02/17 04:19:38;;;;;;;27.37;11.87;;;;;;;;;;5126188;28;20084;-60
2024/02/17 04:22:04;;;;;;;37.42;14.48;;;;;;;;;;5117260;28;20028;-59
2024/02/17 04:24:30;;;;;;;37.20;13.23;;;;;;;;;;5118787;28;20091;-58
2024/02/17 04:26:56;;;;;;;34.88;13.65;;;;;;;;;;5118392;28;20058;-56
2024/02/17 04:29:21;;;;;;;47.03;14.82;;;;;;;;;;5125717;28;20108;-58
2024/02/17 04:31:47;;;;;;;40.73;16.33;;;;;;;;;;5126442;28;20032;-57
2024/02/17 04:34:12;;;;;;;36.90;14.90;;;;;;;;;;5118501;28;20260;-57
2024/02/17 04:36:38;;;;;;;44.20;15.53;;;;;;;;;;5118114;28;20280;-58
2024/02/17 04:39:05;;;;;;;41.20;15.83;;;;;;;;;;5119685;28;20260;-61
2024/02/17 04:41:30;;;;;;;31.27;12.47;;;;;;;;;;5122310;28;20255;-58
2024/02/17 04:43:56;;;;;;;37.70;12.83;;;;;;;;;;5127168;28;20264;-60
2024/02/17 04:46:21;;;;;;;33.30;13.07;;;;;;;;;;5118176;28;20328;-59
2024/02/17 04:48:47;;;;;;;29.97;12.70;;;;;;;;;;5124203;28;20248;-59
2024/02/17 04:51:12;;;;;;;38.47;12.80;;;;;;;;;;5124916;28;20279;-60
2024/02/17 04:53:38;;;;;;;29.10;10.98;;;;;;;;;;5123040;28;20032;-60
2024/02/17 04:56:04;;;;;;;26.20;10.23;;;;;;;;;;5116906;28;20036;-60
2024/02/17 04:58:29;;;;;;;32.37;12.67;;;;;;;;;;5108987;28;20328;-58
2024/02/17 05:00:55;;;;;;;28.65;12.02;;;;;;;;;;5122652;28;20028;-60
2024/02/17 05:03:21;;;;;;;42.92;12.02;;;;;;;;;;5119287;28;20060;-59
2024/02/17 05:05:47;;;;;;;33.63;13.63;;;;;;;;;;5117783;28;20028;-59
2024/02/17 05:08:13;;;;;;;28.05;9.93;;;;;;;;;;5117583;28;20030;-58
2024/02/17 05:10:39;;;;;;;32.65;11.07;;;;;;;;;;5134938;28;20045;-56
2024/02/17 05:13:04;;;;;;;28.63;11.27;;;;;;;;;;5120494;28;20079;-58
2024/02/17 05:15:30;;;;;;;24.13;11.55;;;;;;;;;;5117309;28;20257;-59
2024/02/17 05:17:56;;;;;;;26.98;11.98;;;;;;;;;;5117367;28;20035;-60
2024/02/17 05:20:21;;;;;;;27.93;13.27;;;;;;;;;;5117774;28;20032;-59
2024/02/17 05:22:47;;;;;;;33.05;13.88;;;;;;;;;;5117965;28;20027;-58
2024/02/17 05:25:12;;;;;;;29.88;13.98;;;;;;;;;;5117496;28;20059;-57
2024/02/17 05:27:38;;;;;;;33.05;12.10;;;;;;;;;;5117448;28;20039;-58
2024/02/17 05:30:04;;;;;;;33.30;13.03;;;;;;;;;;5129371;28;20039;-56
2024/02/17 05:32:29;;;;;;;33.67;12.80;;;;;;;;;;5117433;28;20032;-59
2024/02/17 05:34:54;;;;;;;29.88;13.60;;;;;;;;;;5123228;28;20040;-58
2024/02/17 05:37:20;;;;;;;41.03;15.43;;;;;;;;;;5117360;28;20032;-58
2024/02/17 05:39:46;;;;;;;32.80;14.75;;;;;;;;;;5125484;28;20020;-58
2024/02/17 05:42:12;;;;;;;38.30;16.67;;;;;;;;;;5117246;28;20036;-58
2024/02/17 05:44:37;;;;;;;32.33;13.90;;;;;;;;;;5116625;28;20050;-59
2024/02/17 05:47:03;;;;;;;36.93;15.70;;;;;;;;;;5117329;28;20256;-59
2024/02/17 05:49:29;;;;;;;38.85;15.60;;;;;;;;;;5116940;28;20252;-57
2024/02/17 05:51:56;;;;;;;31.60;15.45;;;;;;;;;;5119145;28;20059;-60
2024/02/17 05:54:22;;;;;;;43.63;15.10;;;;;;;;;;5116588;28;20051;-56
2024/02/17 05:56:49;;;;;;;38.73;14.60;;;;;;;;;;5116893;28;20336;-56
2024/02/17 05:59:15;;;;;;;46.30;17.57;;;;;;;;;;5119140;28;20253;-58
2024/02/17 06:01:41;;;;;;;28.30;13.33;;;;;;;;;;5127391;28;20268;-57
2024/02/17 06:04:07;;;;;;;27.17;12.35;;;;;;;;;;5123631;28;20336;-60
2024/02/17 06:06:33;;;;;;;28.10;13.07;;;;;;;;;;5116927;28;20040;-59
2024/02/17 06:08:58;;;;;;;33.90;13.27;;;;;;;;;;5116291;28;20032;-59
2024/02/17 06:11:24;;;;;;;29.50;12.10;;;;;;;;;;5116600;28;20036;-59
2024/02/17 06:13:49;;;;;;;31.23;12.35;;;;;;;;;;5117356;28;20047;-59
2024/02/17 06:16:18;;;;;;;30.40;11.73;;;;;;;;;;5120212;28;20051;-57
2024/02/17 06:21:28;;;;;;;26.70;11.03;;;;;;;;;;5120518;28;20332;-58
2024/02/17 06:23:55;;;;;;;25.95;10.50;;;;;;;;;;5113472;28;20264;-58
2024/02/17 06:26:25;;;;;;;25.83;11.60;;;;;;;;;;5111706;28;20028;-59
2024/02/17 06:28:51;;;;;;;24.77;11.73;;;;;;;;;;5115949;28;20270;-58
2024/02/17 06:31:17;;;;;;;23.02;11.25;;;;;;;;;;5117503;28;20265;-59
2024/02/17 06:33:43;;;;;;;33.47;12.27;;;;;;;;;;5118863;28;20033;-59
2024/02/17 06:36:09;;;;;;;23.90;11.38;;;;;;;;;;5125214;28;20032;-59
2024/02/17 06:38:34;;;;;;;28.08;11.75;;;;;;;;;;5102682;28;20035;-59
2024/02/17 06:41:00;;;;;;;32.03;12.60;;;;;;;;;;5116380;28;20059;-62
2024/02/17 06:43:25;;;;;;;29.30;12.77;;;;;;;;;;5102590;28;20027;-59
2024/02/17 06:45:51;;;;;;;26.70;11.48;;;;;;;;;;5115535;28;20115;-58
2024/02/17 06:48:16;;;;;;;35.03;12.63;;;;;;;;;;5102655;28;20016;-58
2024/02/17 06:50:42;;;;;;;30.48;12.13;;;;;;;;;;5124028;28;20031;-59
2024/02/17 06:53:07;;;;;;;24.50;11.18;;;;;;;;;;5119617;28;20062;-58
2024/02/17 06:55:33;;;;;;;22.67;11.98;;;;;;;;;;5115521;28;20027;-57
2024/02/17 06:57:58;;;;;;;28.83;12.57;;;;;;;;;;5115768;28;20028;-58
2024/02/17 07:00:24;;;;;;;27.33;12.07;;;;;;;;;;5120180;28;20034;-59
2024/02/17 07:02:50;;;;;;;32.37;12.53;;;;;;;;;;5114861;28;20053;-58
2024/02/17 07:05:15;;;;;;;25.33;12.30;;;;;;;;;;5107858;28;20028;-62
2024/02/17 07:07:40;;;;;;;37.10;12.25;;;;;;;;;;5115295;28;20058;-57
2024/02/17 07:10:06;;;;;;;29.95;12.50;;;;;;;;;;5105505;28;20078;-59
2024/02/17 07:12:34;;;;;;;28.20;12.30;;;;;;;;;;5113263;28;20048;-60
2024/02/17 07:14:59;;;;;;;35.23;12.33;;;;;;;;;;5115501;28;20036;-59
2024/02/17 07:17:25;;;;;;;36.00;12.30;;;;;;;;;;5115407;28;20287;-59
2024/02/17 07:19:50;;;;;;;32.67;13.97;;;;;;;;;;5115358;28;20024;-58
2024/02/17 07:22:16;;;;;;;31.08;13.77;;;;;;;;;;5112176;28;20028;-56
2024/02/17 07:24:42;;;;;;;37.47;13.32;;;;;;;;;;5104614;28;20052;-60
2024/02/17 07:27:08;;;;;;;27.80;11.67;;;;;;;;;;5118446;28;20031;-60
2024/02/17 07:29:37;;;;;;;27.08;11.57;;;;;;;;;;5115201;28;20275;-60
2024/02/17 07:32:03;;;;;;;29.07;11.90;;;;;;;;;;5120031;28;20051;-59
2024/02/17 07:34:32;;;;;;;22.45;10.27;;;;;;;;;;5122092;28;20265;-60
2024/02/17 07:36:58;;;;;;;24.07;10.53;;;;;;;;;;5112370;28;20053;-59
2024/02/17 07:39:24;;;;;;;26.60;10.25;;;;;;;;;;5115115;28;20253;-60
2024/02/17 07:41:53;;;;;;;30.35;11.02;;;;;;;;;;5123848;28;20032;-59
2024/02/17 07:44:20;;;;;;;30.17;11.63;;;;;;;;;;5114311;28;20047;-59
2024/02/17 07:46:48;;;;;;;33.63;12.17;;;;;;;;;;5108057;28;20272;-58
2024/02/17 07:49:17;;;;;;;30.10;11.60;;;;;;;;;;5109146;28;20260;-59
2024/02/17 07:51:43;;;;;;;43.33;15.40;;;;;;;;;;5116652;28;20284;-59
2024/02/17 07:54:09;;;;;;;36.20;14.02;;;;;;;;;;5114577;28;20260;-61
2024/02/17 07:56:34;;;;;;;29.77;12.00;;;;;;;;;;5114435;28;20043;-60
2024/02/17 07:59:00;;;;;;;36.27;11.63;;;;;;;;;;5114682;28;20036;-59
2024/02/17 08:01:25;;;;;;;40.22;12.65;;;;;;;;;;5098441;28;20083;-59
2024/02/17 08:03:51;;;;;;;34.28;12.45;;;;;;;;;;5109155;28;20043;-59
2024/02/17 08:06:20;;;;;;;42.38;12.32;;;;;;;;;;5114513;28;20039;-58
2024/02/17 08:08:49;;;;;;;28.00;11.20;;;;;;;;;;5114797;28;20036;-59
2024/02/17 08:11:15;;;;;;;31.17;10.73;;;;;;;;;;5119676;28;20275;-59
2024/02/17 08:13:41;;;;;;;29.70;9.88;;;;;;;;;;5127913;28;20252;-60
2024/02/17 08:16:07;;;;;;;23.38;9.77;;;;;;;;;;5107709;28;20044;-58
2024/02/17 08:18:33;;;;;;;27.60;9.52;;;;;;;;;;5108301;28;20055;-58
2024/02/17 08:21:00;;;;;;;25.10;8.70;;;;;;;;;;5104435;28;20028;-60
2024/02/17 08:23:28;;;;;;;21.20;8.53;;;;;;;;;;5119549;28;20032;-59
2024/02/17 08:25:54;;;;;;;26.73;8.80;;;;;;;;;;5100590;28;20249;-60
2024/02/17 08:28:20;;;;;;;23.67;8.32;;;;;;;;;;5104312;28;20277;-61
2024/02/17 08:30:45;;;;;;;29.05;8.98;;;;;;;;;;5111331;28;20036;-60
2024/02/17 08:33:10;;;;;;;28.87;9.30;;;;;;;;;;5104281;28;20035;-60
2024/02/17 08:35:37;;;;;;;27.88;9.20;;;;;;;;;;5115676;28;20054;-59
2024/02/17 08:38:03;;;;;;;26.15;8.93;;;;;;;;;;5114583;28;20036;-58
2024/02/17 08:40:29;;;;;;;18.92;7.88;;;;;;;;;;5101940;28;20016;-60
2024/02/17 08:42:54;;;;;;;21.15;8.23;;;;;;;;;;5120923;28;20028;-58
2024/02/17 08:45:20;;;;;;;20.10;8.57;;;;;;;;;;5115345;28;20047;-61
2024/02/17 08:47:45;;;;;;;22.10;8.30;;;;;;;;;;5124832;28;20039;-59
2024/02/17 08:50:10;;;;;;;22.60;8.40;;;;;;;;;;5114432;28;20275;-60
2024/02/17 08:52:36;;;;;;;17.80;8.73;;;;;;;;;;5122597;28;20040;-59
2024/02/17 08:55:02;;;;;;;23.98;7.88;;;;;;;;;;5121446;28;20036;-60
2024/02/17 08:57:27;;;;;;;20.10;7.97;;;;;;;;;;5113658;28;20059;-59
2024/02/17 08:59:53;;;;;;;18.08;8.05;;;;;;;;;;5114199;28;20047;-58
2024/02/17 09:02:19;;;;;;;25.15;8.65;;;;;;;;;;5120770;28;20024;-61
2024/02/17 09:04:45;;;;;;;19.25;7.57;;;;;;;;;;5124462;28;20035;-59
2024/02/17 09:07:10;;;;;;;22.80;8.43;;;;;;;;;;5131610;28;20028;-59
2024/02/17 09:09:36;;;;;;;20.92;7.90;;;;;;;;;;5117872;28;20032;-61
2024/02/17 09:12:02;;;;;;;26.10;8.35;;;;;;;;;;5120924;28;20040;-59
2024/02/17 09:14:33;;;;;;;28.95;10.98;;;;;;;;;;5119507;28;20028;-59
2024/02/17 09:16:58;;;;;;;20.40;8.77;;;;;;;;;;5116817;28;20032;-60
2024/02/17 09:19:24;;;;;;;24.73;10.43;;;;;;;;;;5117649;28;20281;-59
2024/02/17 09:21:49;;;;;;;30.43;8.93;;;;;;;;;;5121184;28;20042;-59
2024/02/17 09:24:19;;;;;;;25.45;11.00;;;;;;;;;;5118903;28;20103;-59
2024/02/17 09:26:45;;;;;;;24.37;10.43;;;;;;;;;;5116579;28;20039;-59
2024/02/17 09:29:10;;;;;;;27.70;9.77;;;;;;;;;;5117558;28;20036;-59
2024/02/17 09:31:36;;;;;;;36.03;9.10;;;;;;;;;;5117847;28;20070;-60
2024/02/17 09:34:01;;;;;;;17.57;7.90;;;;;;;;;;5124408;28;20036;-59
2024/02/17 09:36:28;;;;;;;17.80;7.10;;;;;;;;;;5116939;28;20047;-57
2024/02/17 09:38:54;;;;;;;19.63;7.03;;;;;;;;;;5117219;28;20031;-62
2024/02/17 09:41:19;;;;;;;19.57;7.67;;;;;;;;;;5117002;28;20257;-59
2024/02/17 09:43:45;;;;;;;18.95;7.93;;;;;;;;;;5120911;28;20261;-59
2024/02/17 09:46:12;;;;;;;18.00;8.02;;;;;;;;;;5116940;28;20068;-60
2024/02/17 09:48:37;;;;;;;18.00;7.70;;;;;;;;;;5117239;28;20032;-59
2024/02/17 09:51:06;;;;;;;15.50;7.60;;;;;;;;;;5116837;28;20296;-59
2024/02/17 09:53:32;;;;;;;19.47;7.77;;;;;;;;;;5116967;28;20265;-57
2024/02/17 09:56:00;;;;;;;21.38;8.27;;;;;;;;;;5119895;28;20265;-59
2024/02/17 09:58:26;;;;;;;25.20;7.87;;;;;;;;;;5116464;28;20036;-60
2024/02/17 10:00:52;;;;;;;20.10;8.13;;;;;;;;;;5116958;28;20256;-58
2024/02/17 10:03:19;;;;;;;16.40;7.95;;;;;;;;;;5126452;28;20047;-59
2024/02/17 10:05:45;;;;;;;20.90;7.57;;;;;;;;;;5116776;28;20039;-59
2024/02/17 10:08:11;;;;;;;23.42;8.23;;;;;;;;;;5116661;28;20344;-59
2024/02/17 10:10:38;;;;;;;19.20;7.80;;;;;;;;;;5116555;28;20028;-59
2024/02/17 10:13:03;;;;;;;17.75;7.75;;;;;;;;;;5123627;28;20270;-58
2024/02/17 10:15:31;;;;;;;20.10;7.43;;;;;;;;;;5118205;28;20059;-60
2024/02/17 10:17:56;;;;;;;20.43;7.97;;;;;;;;;;5115978;28;20046;-58
2024/02/17 10:20:22;;;;;;;19.40;7.57;;;;;;;;;;5107990;28;20262;-59
2024/02/17 10:22:47;;;;;;;15.52;8.65;;;;;;;;;;5115120;28;20248;-58
2024/02/17 10:25:13;;;;;;;20.73;7.97;;;;;;;;;;5115307;28;20092;-58
2024/02/17 10:27:39;;;;;;;20.90;8.73;;;;;;;;;;5111619;28;20033;-58
2024/02/17 10:30:12;;;;;;;24.52;8.70;;;;;;;;;;5110112;28;20036;-57
2024/02/17 10:32:38;;;;;;;18.83;7.93;;;;;;;;;;5119043;28;20055;-58
2024/02/17 10:35:05;;;;;;;21.08;8.48;;;;;;;;;;5123098;28;20272;-59
2024/02/17 10:37:32;;;;;;;22.77;8.27;;;;;;;;;;5112732;28;20032;-59
2024/02/17 10:40:03;;;;;;;24.03;8.60;;;;;;;;;;5116086;28;20024;-59
2024/02/17 10:42:29;;;;;;;23.00;8.37;;;;;;;;;;5107858;28;20052;-59
2024/02/17 10:44:56;;;;;;;22.85;8.70;;;;;;;;;;5124694;28;20027;-61
2024/02/17 10:47:25;;;;;;;23.70;8.17;;;;;;;;;;5121421;28;20051;-58
2024/02/17 10:49:53;;;;;;;21.50;8.53;;;;;;;;;;5115466;28;20058;-57
2024/02/17 10:52:20;;;;;;;17.80;8.80;;;;;;;;;;5115589;28;20111;-60
2024/02/17 10:54:54;;;;;;;17.47;7.50;;;;;;;;;;5116414;28;20024;-60
2024/02/17 10:57:21;;;;;;;21.10;8.43;;;;;;;;;;5117112;28;20028;-59
2024/02/17 10:59:51;;;;;;;20.57;8.47;;;;;;;;;;5116550;28;20022;-58
2024/02/17 11:02:19;;;;;;;21.63;8.33;;;;;;;;;;5108956;28;20087;-58
2024/02/17 11:04:45;;;;;;;24.00;9.07;;;;;;;;;;5127711;28;20031;-60
2024/02/17 11:07:11;;;;;;;17.88;8.25;;;;;;;;;;5125551;28;20051;-59
2024/02/17 11:09:37;;;;;;;18.63;9.02;;;;;;;;;;5116908;28;20024;-58
2024/02/17 11:12:21;;;;;;;21.90;9.75;;;;;;;;;;5115560;28;20116;-57
2024/02/17 11:14:47;;;;;;;20.47;9.73;;;;;;;;;;5120225;28;20059;-59
2024/02/17 11:17:12;;;;;;;23.35;9.32;;;;;;;;;;5115215;28;20065;-60
2024/02/17 11:19:38;;;;;;;22.88;9.10;;;;;;;;;;5113200;28;20032;-57
2024/02/17 11:22:06;;;;;;;21.50;9.20;;;;;;;;;;5115266;28;20047;-58
2024/02/17 11:24:35;;;;;;;22.80;9.93;;;;;;;;;;5095624;28;20036;-57
2024/02/17 11:27:03;;;;;;;23.63;8.93;;;;;;;;;;5121127;28;20028;-60
2024/02/17 11:29:30;;;;;;;27.57;10.27;;;;;;;;;;5107661;28;20040;-59
2024/02/17 11:32:00;;;;;;;21.53;9.93;;;;;;;;;;5107511;28;20048;-59
2024/02/17 11:34:26;;;;;;;24.73;9.30;;;;;;;;;;5111025;28;20046;-59
2024/02/17 11:36:54;;;;;;;24.87;11.10;;;;;;;;;;5107674;28;20055;-57
2024/02/17 11:39:20;;;;;;;19.43;9.47;;;;;;;;;;5114573;28;20088;-59
2024/02/17 11:41:46;;;;;;;20.90;9.52;;;;;;;;;;5110617;28;20025;-57
2024/02/17 11:44:12;;;;;;;23.00;9.85;;;;;;;;;;5114194;28;20043;-60
2024/02/17 11:46:39;;;;;;;18.58;10.00;;;;;;;;;;5113207;28;20027;-59
2024/02/17 11:49:10;;;;;;;26.13;9.43;;;;;;;;;;5111038;28;20036;-59
2024/02/17 11:51:38;;;;;;;21.53;10.00;;;;;;;;;;5107291;28;20028;-59
2024/02/17 11:54:03;;;;;;;24.63;10.38;;;;;;;;;;5117555;28;20036;-60
2024/02/17 11:56:28;;;;;;;19.60;9.57;;;;;;;;;;5111356;28;20074;-60
2024/02/17 11:58:54;;;;;;;25.93;8.90;;;;;;;;;;5108807;28;20264;-59
2024/02/17 12:01:20;;;;;;;20.23;10.93;;;;;;;;;;5111169;28;20081;-58
2024/02/17 12:03:45;;;;;;;21.95;9.60;;;;;;;;;;5115571;28;20028;-59
2024/02/17 12:06:11;;;;;;;27.13;10.23;;;;;;;;;;5118481;28;20023;-59
2024/02/17 12:08:36;;;;;;;22.38;10.13;;;;;;;;;;5113441;28;20059;-60
2024/02/17 12:11:02;;;;;;;20.40;9.60;;;;;;;;;;5106191;28;20538;-59
2024/02/17 12:13:27;;;;;;;21.38;9.25;;;;;;;;;;5112757;28;20052;-59
2024/02/17 12:15:53;;;;;;;20.52;9.15;;;;;;;;;;5114696;28;20070;-58
2024/02/17 12:18:19;;;;;;;23.42;9.95;;;;;;;;;;5118054;28;20269;-59
2024/02/17 12:20:44;;;;;;;22.13;10.00;;;;;;;;;;5109122;28;20063;-60
2024/02/17 12:23:10;;;;;;;21.00;10.33;;;;;;;;;;5114287;28;20045;-60
2024/02/17 12:25:35;;;;;;;20.40;9.43;;;;;;;;;;5111092;28;20085;-59
2024/02/17 12:28:01;;;;;;;24.80;10.45;;;;;;;;;;5117424;28;20092;-59
2024/02/17 12:30:27;;;;;;;22.10;9.73;;;;;;;;;;5116494;28;20028;-60
2024/02/17 12:33:18;;;;;;;21.35;9.65;;;;;;;;;;5114205;28;20044;-61
2024/02/17 12:35:48;;;;;;;22.33;10.03;;;;;;;;;;5119817;28;20033;-59
2024/02/17 12:38:19;;;;;;;29.07;11.63;;;;;;;;;;5111989;28;20032;-59
2024/02/17 12:40:50;;;;;;;25.00;10.87;;;;;;;;;;5113837;28;20028;-58
2024/02/17 12:43:16;;;;;;;25.23;12.13;;;;;;;;;;5118179;28;20028;-60
2024/02/17 12:45:42;;;;;;;24.53;12.47;;;;;;;;;;5120571;28;20051;-59
2024/02/17 12:48:07;;;;;;;22.65;11.02;;;;;;;;;;5117831;28;20039;-60
2024/02/17 12:50:33;;;;;;;30.80;11.53;;;;;;;;;;5117581;28;20040;-61
2024/02/17 12:53:14;;;;;;;25.40;10.77;;;;;;;;;;5117010;28;20032;-60
2024/02/17 12:55:41;;;;;;;21.17;10.87;;;;;;;;;;5117382;28;20062;-61
2024/02/17 12:58:07;;;;;;;19.17;9.57;;;;;;;;;;5115315;28;20063;-59
2024/02/17 13:00:34;;;;;;;19.35;9.43;;;;;;;;;;5116768;28;20032;-59
2024/02/17 13:02:59;;;;;;;25.03;11.07;;;;;;;;;;5111754;28;20028;-60
2024/02/17 13:05:24;;;;;;;15.77;8.10;;;;;;;;;;5112998;28;20032;-59
2024/02/17 13:07:50;;;;;;;21.38;9.73;;;;;;;;;;5106921;28;20269;-59
2024/02/17 13:10:16;;;;;;;18.30;10.10;;;;;;;;;;5114096;28;20032;-60
2024/02/17 13:12:41;;;;;;;23.98;10.27;;;;;;;;;;5117723;28;20042;-60
2024/02/17 13:15:08;;;;;;;19.70;9.48;;;;;;;;;;5108365;28;20086;-60
2024/02/17 13:17:34;;;;;;;24.10;9.40;;;;;;;;;;5108645;28;20083;-60
2024/02/17 13:19:59;;;;;;;21.63;9.77;;;;;;;;;;5129398;28;20134;-60
2024/02/17 13:22:25;;;;;;;20.00;9.20;;;;;;;;;;5117809;28;20035;-59
2024/02/17 13:24:50;;;;;;;20.93;9.33;;;;;;;;;;5103967;28;20032;-59
2024/02/17 13:27:16;;;;;;;17.52;8.00;;;;;;;;;;5109896;28;20082;-58
2024/02/17 13:29:41;;;;;;;13.20;7.88;;;;;;;;;;5116992;28;20035;-57
2024/02/17 13:32:07;;;;;;;19.05;8.30;;;;;;;;;;5116895;28;20024;-57
2024/02/17 13:34:34;;;;;;;17.13;8.35;;;;;;;;;;5118076;28;20036;-58
2024/02/17 13:36:59;;;;;;;16.60;9.17;;;;;;;;;;5118858;28;20028;-60
2024/02/17 13:39:25;;;;;;;17.52;7.35;;;;;;;;;;5115743;28;20084;-59
2024/02/17 13:41:51;;;;;;;17.87;8.67;;;;;;;;;;5102980;28;20043;-59
2024/02/17 13:44:17;;;;;;;17.50;7.90;;;;;;;;;;5114106;28;20024;-59
2024/02/17 13:46:42;;;;;;;18.48;8.63;;;;;;;;;;5117104;28;20074;-60
2024/02/17 13:49:10;;;;;;;17.05;7.45;;;;;;;;;;5115975;28;20031;-59
2024/02/17 13:51:37;;;;;;;15.03;7.50;;;;;;;;;;5114919;28;20036;-59
2024/02/17 13:54:05;;;;;;;20.03;8.37;;;;;;;;;;5115624;28;20032;-59
2024/02/17 13:56:30;;;;;;;18.10;8.43;;;;;;;;;;5116188;28;20027;-60
2024/02/17 13:58:56;;;;;;;17.90;8.80;;;;;;;;;;5117490;28;20028;-57
2024/02/17 14:01:21;;;;;;;20.90;9.90;;;;;;;;;;5124914;28;20099;-56
2024/02/17 14:03:47;;;;;;;18.70;8.25;;;;;;;;;;5116374;28;20031;-57
2024/02/17 14:06:14;;;;;;;26.13;9.85;;;;;;;;;;5127851;28;20039;-58
2024/02/17 14:08:39;;;;;;;19.63;9.70;;;;;;;;;;5117608;28;20021;-59
2024/02/17 14:11:05;;;;;;;17.07;8.60;;;;;;;;;;5115956;28;20058;-59
2024/02/17 14:13:30;;;;;;;23.38;9.77;;;;;;;;;;5112153;28;20544;-59
2024/02/17 14:15:56;;;;;;;17.95;8.85;;;;;;;;;;5101513;28;20084;-57
2024/02/17 14:18:22;;;;;;;20.83;9.57;;;;;;;;;;5106489;28;20032;-58
2024/02/17 14:20:49;;;;;;;22.37;9.60;;;;;;;;;;5119799;28;20063;-61